createdAt,value
2017-10-20T00:01:19.803Z,"    0"
2017-10-20T00:06:16.104Z,"    0"
2017-10-20T00:11:13.485Z,"    0"
2017-10-20T00:16:11.464Z,"    0"
2017-10-20T00:21:07.910Z,"    0"
2017-10-20T00:26:03.431Z,"    0"
2017-10-20T00:30:59.610Z,"    0"
2017-10-20T00:35:57.173Z,"    0"
2017-10-20T00:40:52.853Z,"    0"
2017-10-20T00:45:50.194Z,"    0"
2017-10-20T00:50:45.747Z,"    0"
2017-10-20T00:55:42.038Z,"    0"
2017-10-20T01:00:39.636Z,"    0"
2017-10-20T01:05:36.478Z,"    0"
2017-10-20T01:10:33.718Z,"    0"
2017-10-20T01:15:30.159Z,"    0"
2017-10-20T01:20:27.940Z,"    0"
2017-10-20T01:25:25.894Z,"    0"
2017-10-20T01:30:22.860Z,"    0"
2017-10-20T01:35:20.126Z,"    0"
2017-10-20T01:40:16.836Z,"    0"
2017-10-20T01:45:13.448Z,"    0"
2017-10-20T01:50:14.662Z,"    0"
2017-10-20T01:55:10.609Z,"    0"
2017-10-20T02:00:06.017Z,"    0"
2017-10-20T02:05:03.889Z,"    0"
2017-10-20T02:10:00.685Z,"    0"
2017-10-20T02:14:56.212Z,"    0"
2017-10-20T02:19:52.357Z,"    0"
2017-10-20T02:24:47.916Z,"    0"
2017-10-20T02:29:45.056Z,"    0"
2017-10-20T02:34:44.778Z,"    0"
2017-10-20T02:39:40.395Z,"    0"
2017-10-20T02:44:36.836Z,"    0"
2017-10-20T02:49:32.579Z,"    0"
2017-10-20T02:54:30.664Z,"    0"
2017-10-20T02:59:26.962Z,"    0"
2017-10-20T03:04:22.418Z,"    0"
2017-10-20T03:09:19.384Z,"    0"
2017-10-20T03:14:14.997Z,"    0"
2017-10-20T03:19:11.970Z,"    0"
2017-10-20T03:24:09.499Z,"    0"
2017-10-20T03:29:05.693Z,"    0"
2017-10-20T03:34:02.535Z,"    0"
2017-10-20T03:38:58.696Z,"    0"
2017-10-20T03:43:55.968Z,"    0"
2017-10-20T03:48:51.651Z,"    0"
2017-10-20T03:53:48.473Z,"    0"
2017-10-20T03:58:47.695Z,"    0"
2017-10-20T04:03:42.862Z,"    0"
2017-10-20T04:08:39.952Z,"    0"
2017-10-20T04:13:37.962Z,"    0"
2017-10-20T04:18:37.912Z,"    0"
2017-10-20T04:23:34.317Z,"    0"
2017-10-20T04:28:32.438Z,"    0"
2017-10-20T04:33:28.877Z,"    0"
2017-10-20T04:38:25.767Z,"    0"
2017-10-20T04:43:22.681Z,"    0"
2017-10-20T04:48:20.805Z,"    0"
2017-10-20T04:53:17.396Z,"    0"
2017-10-20T04:58:14.392Z,"    0"
2017-10-20T05:03:11.164Z,"    0"
2017-10-20T05:08:09.946Z,"    0"
2017-10-20T05:13:05.386Z,"    0"
2017-10-20T05:18:02.221Z,"    0"
2017-10-20T05:23:00.014Z,"    0"
2017-10-20T05:27:56.612Z,"    0"
2017-10-20T05:32:52.625Z,"    0"
2017-10-20T05:37:49.223Z,"    0"
2017-10-20T05:42:44.797Z,"    0"
2017-10-20T05:47:41.932Z,"    4"
2017-10-20T05:52:38.514Z,"    4"
2017-10-20T05:57:34.935Z,"    8"
2017-10-20T06:02:32.954Z,"   16"
2017-10-20T06:07:29.364Z,"   24"
2017-10-20T06:12:26.389Z,"   28"
2017-10-20T06:17:24.581Z,"   60"
2017-10-20T06:22:20.127Z,"   96"
2017-10-20T06:27:15.751Z,"  156"
2017-10-20T06:32:11.580Z,"  180"
2017-10-20T06:37:08.178Z,"  228"
2017-10-20T06:42:05.503Z,"  184"
2017-10-20T06:47:01.209Z,"  188"
2017-10-20T06:51:56.800Z,"  156"
2017-10-20T06:56:53.703Z,"  132"
2017-10-20T07:01:50.087Z,"  128"
2017-10-20T07:06:45.582Z,"   96"
2017-10-20T07:11:42.014Z,"  156"
2017-10-20T07:16:37.842Z,"  188"
2017-10-20T07:21:34.556Z,"  232"
2017-10-20T07:26:31.259Z,"  488"
2017-10-20T07:31:26.498Z,"  972"
2017-10-20T07:36:23.565Z," 1148"
2017-10-20T07:41:19.017Z," 1444"
2017-10-20T07:46:15.392Z," 2436"
2017-10-20T07:51:11.407Z," 2900"
2017-10-20T07:56:07.278Z," 2160"
2017-10-20T08:01:03.164Z," 3500"
2017-10-20T08:05:59.082Z," 4108"
2017-10-20T08:10:56.082Z," 4348"
2017-10-20T08:15:52.603Z," 3248"
2017-10-20T08:20:49.245Z," 5416"
2017-10-20T08:25:44.948Z," 5688"
2017-10-20T08:30:40.719Z," 2728"
2017-10-20T08:35:36.771Z," 2796"
2017-10-20T08:40:33.650Z," 1992"
2017-10-20T08:45:29.933Z," 3084"
2017-10-20T08:50:25.496Z," 3236"
2017-10-20T08:55:21.150Z," 1684"
2017-10-20T09:00:17.015Z," 1680"
2017-10-20T09:05:13.741Z," 1612"
2017-10-20T09:10:09.260Z," 1096"
2017-10-20T09:15:04.800Z," 1560"
2017-10-20T09:20:02.696Z," 1840"
2017-10-20T09:24:59.652Z,"  744"
2017-10-20T09:29:56.570Z," 1396"
2017-10-20T09:34:52.181Z," 2560"
2017-10-20T09:39:48.060Z," 4292"
2017-10-20T09:44:44.110Z," 3176"
2017-10-20T09:49:39.863Z," 3540"
2017-10-20T09:54:38.128Z," 3276"
2017-10-20T09:59:33.910Z," 2928"
2017-10-20T10:04:30.787Z," 2944"
2017-10-20T10:09:27.040Z," 2500"
2017-10-20T10:14:22.919Z," 2356"
2017-10-20T10:19:18.908Z," 6628"
2017-10-20T10:24:14.849Z," 5496"
2017-10-20T10:29:12.369Z," 6084"
2017-10-20T10:34:09.291Z," 6272"
2017-10-20T10:39:05.826Z," 5328"
2017-10-20T10:44:01.288Z," 6440"
2017-10-20T10:48:57.262Z,10212
2017-10-20T10:53:54.607Z," 7780"
2017-10-20T10:58:50.504Z," 6624"
2017-10-20T11:03:46.639Z,16492
2017-10-20T11:08:44.105Z," 7756"
2017-10-20T11:13:39.566Z,24448
2017-10-20T11:18:35.325Z," 5628"
2017-10-20T11:23:31.020Z," 8296"
2017-10-20T11:28:27.700Z," 9508"
2017-10-20T11:33:24.577Z," 5592"
2017-10-20T11:38:19.901Z," 6716"
2017-10-20T11:43:16.973Z," 4360"
2017-10-20T11:48:13.845Z," 4648"
2017-10-20T11:53:10.574Z," 4508"
2017-10-20T11:58:06.017Z," 4204"
2017-10-20T12:03:02.429Z," 6660"
2017-10-20T12:08:00.307Z," 5596"
2017-10-20T12:12:56.852Z," 3800"
2017-10-20T12:17:52.391Z," 3484"
2017-10-20T12:22:48.118Z," 3040"
2017-10-20T12:27:45.379Z," 2968"
2017-10-20T12:32:41.048Z," 5292"
2017-10-20T12:37:36.887Z," 4044"
2017-10-20T12:42:32.924Z," 3216"
2017-10-20T12:47:28.901Z," 7000"
2017-10-20T12:52:26.104Z," 6608"
2017-10-20T12:57:21.845Z," 6428"
2017-10-20T13:02:17.750Z," 4800"
2017-10-20T13:07:13.604Z," 6296"
2017-10-20T13:12:09.541Z," 4764"
2017-10-20T13:17:06.402Z," 3664"
2017-10-20T13:22:03.151Z," 2972"
2017-10-20T13:27:00.701Z," 2676"
2017-10-20T13:31:55.940Z," 2168"
2017-10-20T13:36:51.880Z," 3064"
2017-10-20T13:41:48.695Z," 1272"
2017-10-20T13:46:45.036Z," 1908"
2017-10-20T13:51:41.351Z," 1368"
2017-10-20T13:56:36.915Z," 1344"
2017-10-20T14:01:32.776Z," 1304"
2017-10-20T14:06:29.148Z," 2144"
2017-10-20T14:11:24.872Z," 3132"
2017-10-20T14:16:20.947Z," 1540"
2017-10-20T14:21:16.667Z," 1424"
2017-10-20T14:26:13.414Z," 1632"
2017-10-20T14:31:09.144Z," 1488"
2017-10-20T14:36:07.136Z," 1076"
2017-10-20T14:41:03.547Z,"  996"
2017-10-20T14:45:59.050Z," 1664"
2017-10-20T14:50:55.381Z," 1136"
2017-10-20T14:55:50.932Z," 1100"
2017-10-20T15:00:47.112Z," 2116"
2017-10-20T15:05:43.419Z," 3408"
2017-10-20T15:10:39.342Z," 2704"
2017-10-20T15:15:34.921Z," 2396"
2017-10-20T15:20:30.389Z," 2268"
2017-10-20T15:25:26.409Z," 1560"
2017-10-20T15:30:23.245Z,"  804"
2017-10-20T15:35:18.884Z,"  656"
2017-10-20T15:40:14.814Z,"  548"
2017-10-20T15:45:10.794Z,"  568"
2017-10-20T15:50:07.572Z,"  516"
2017-10-20T15:55:03.034Z,"  560"
2017-10-20T15:59:58.516Z,"  524"
2017-10-20T16:04:54.465Z,"  440"
2017-10-20T16:09:51.318Z,"  288"
2017-10-20T16:14:47.221Z,"  204"
2017-10-20T16:19:43.143Z,"  108"
2017-10-20T16:24:38.936Z,"   64"
2017-10-20T16:29:34.984Z,"   36"
2017-10-20T16:34:30.702Z,"   24"
2017-10-20T16:39:27.725Z,"   12"
2017-10-20T16:44:23.222Z,"    4"
2017-10-20T16:49:19.556Z,"    4"
2017-10-20T16:54:15.338Z,"    0"
2017-10-20T16:59:10.979Z,"    0"
2017-10-20T17:04:07.623Z,"    0"
2017-10-20T17:09:03.695Z,"    0"
2017-10-20T17:13:59.601Z,"    0"
2017-10-20T17:18:55.490Z,"    0"
2017-10-20T17:23:53.005Z,"    0"
2017-10-20T17:28:48.620Z,"    0"
2017-10-20T17:33:44.295Z,"    0"
2017-10-20T17:38:40.245Z,"    0"
2017-10-20T17:43:36.054Z,"    0"
2017-10-20T17:48:33.007Z,"    0"
2017-10-20T17:53:29.014Z,"    0"
2017-10-20T17:58:25.315Z,"    0"
2017-10-20T18:03:21.249Z,"    0"
2017-10-20T18:08:17.021Z,"    0"
2017-10-20T18:13:12.782Z,"    0"
2017-10-20T18:18:09.542Z,"    0"
2017-10-20T18:23:05.065Z,"    0"
2017-10-20T18:28:00.514Z,"    0"
2017-10-20T18:32:57.773Z,"    0"
2017-10-20T18:37:53.934Z,"    0"
2017-10-20T18:42:49.784Z,"    0"
2017-10-20T18:47:45.572Z,"    0"
2017-10-20T18:52:42.830Z,"    0"
2017-10-20T18:57:40.458Z,"    0"
2017-10-20T19:02:35.899Z,"    0"
2017-10-20T19:07:31.543Z,"    0"
2017-10-20T19:12:29.654Z,"    0"
2017-10-20T19:17:24.866Z,"    0"
2017-10-20T19:22:21.050Z,"    0"
2017-10-20T19:27:17.857Z,"    0"
2017-10-20T19:32:13.290Z,"    0"
2017-10-20T19:37:09.264Z,"    0"
2017-10-20T19:42:05.661Z,"    0"
2017-10-20T19:47:01.451Z,"    0"
2017-10-20T19:51:57.418Z,"    0"
2017-10-20T19:56:54.356Z,"    0"
2017-10-20T20:01:50.087Z,"    0"
2017-10-20T20:06:46.978Z,"    0"
2017-10-20T20:11:42.635Z,"    0"
2017-10-20T20:16:40.504Z,"    0"
2017-10-20T20:21:36.022Z,"    0"
2017-10-20T20:26:31.726Z,"    0"
2017-10-20T20:31:28.537Z,"    0"
2017-10-20T20:36:24.200Z,"    0"
2017-10-20T20:41:20.239Z,"    0"
2017-10-20T20:46:16.882Z,"    0"
2017-10-20T20:51:12.379Z,"    0"
2017-10-20T20:56:08.145Z,"    0"
2017-10-20T21:01:04.762Z,"    0"
2017-10-20T21:06:00.399Z,"    0"
2017-10-20T21:10:58.570Z,"    0"
2017-10-20T21:15:55.056Z,"    0"
2017-10-20T21:20:51.410Z,"    0"
2017-10-20T21:25:48.271Z,"    0"
2017-10-20T21:30:44.919Z,"    0"
2017-10-20T21:35:41.567Z,"    0"
2017-10-20T21:40:37.158Z,"    0"
2017-10-20T21:45:33.799Z,"    0"
2017-10-20T21:50:30.211Z,"    0"
2017-10-20T21:55:25.870Z,"    0"
2017-10-20T22:00:23.204Z,"    0"
2017-10-20T22:05:18.624Z,"    0"
2017-10-20T22:10:14.433Z,"    0"
2017-10-20T22:15:10.368Z,"    0"
2017-10-20T22:20:07.734Z,"    0"
2017-10-20T22:25:03.437Z,"    0"
2017-10-20T22:29:59.232Z,"    0"
2017-10-20T22:34:55.016Z,"    0"
2017-10-20T22:39:52.371Z,"    0"
2017-10-20T22:44:49.671Z,"    0"
2017-10-20T22:49:45.653Z,"    0"
2017-10-20T22:54:42.711Z,"    0"
2017-10-20T22:59:39.260Z,"    0"
2017-10-20T23:04:35.361Z,"    0"
2017-10-20T23:09:32.176Z,"    0"
2017-10-20T23:14:29.884Z,"    0"
2017-10-20T23:19:27.780Z,"    0"
2017-10-20T23:24:23.979Z,"    0"
2017-10-20T23:29:21.448Z,"    0"
2017-10-20T23:34:17.614Z,"    0"
2017-10-20T23:39:14.880Z,"    0"
2017-10-20T23:44:10.335Z,"    0"
2017-10-20T23:49:06.441Z,"    0"
2017-10-20T23:54:04.345Z,"    0"
2017-10-20T23:59:01.017Z,"    0"
